Brooks AFB, Texas
Current Conditions -  °F | °C
As of 9:53 AM on Wednesday 28 Jan 2015 (Local Time) from KSSF Reporting Station
Clear Clear  
Wind Chill: 64°   Ceiling: Unl
Heat Index: 64°   Visibility: 10mi
Dew Point: 42°   Wind: 0mph
Humidity: 45%   Direction: NA
Pressure: 30.18"   Gusts: NA
Location:  29.3423°N, 98.4394°W
Report Text: KSSF 281553Z 00000KT 10SM CLR 18/06 A3018 RMK AO2 SLP217 T01780056
Loading
Personal Weather Stations






























Interactive Weather Map New forecast layout! Learn more

10-Day Weather Forecast

Advertisements
Track Severe Weather on mobile